createdAt,value
2018-09-10T00:01:04.910Z,0.00
2018-09-10T00:02:04.922Z,0.00
2018-09-10T00:03:57.831Z,0.00
2018-09-10T00:04:57.854Z,0.00
2018-09-10T00:06:50.771Z,0.00
2018-09-10T00:07:50.782Z,0.00
2018-09-10T00:09:43.689Z,0.00
2018-09-10T00:10:43.711Z,0.00
2018-09-10T00:12:36.630Z,0.00
2018-09-10T00:13:36.637Z,0.00
2018-09-10T00:15:30.542Z,0.00
2018-09-10T00:16:30.566Z,0.00
2018-09-10T00:18:23.483Z,0.00
2018-09-10T00:19:23.494Z,0.00
2018-09-10T00:21:16.414Z,0.00
2018-09-10T00:22:16.421Z,0.00
2018-09-10T00:24:09.336Z,0.00
2018-09-10T00:25:09.347Z,0.00
2018-09-10T00:27:02.263Z,0.00
2018-09-10T00:28:02.276Z,0.00
2018-09-10T00:29:55.189Z,0.00
2018-09-10T00:30:55.208Z,0.00
2018-09-10T00:32:48.123Z,0.00
2018-09-10T00:33:48.136Z,0.00
2018-09-10T00:35:41.043Z,0.00
2018-09-10T00:36:41.062Z,0.00
2018-09-10T00:38:34.975Z,0.00
2018-09-10T00:39:34.986Z,0.00
2018-09-10T00:41:27.897Z,0.00
2018-09-10T00:42:27.916Z,0.00
2018-09-10T00:44:20.834Z,0.00
2018-09-10T00:45:20.846Z,0.00
2018-09-10T00:47:13.751Z,0.00
2018-09-10T00:48:13.771Z,0.00
2018-09-10T00:50:06.702Z,0.00
2018-09-10T00:51:06.706Z,0.00
2018-09-10T00:52:59.636Z,0.00
2018-09-10T00:53:59.631Z,0.00
2018-09-10T00:55:52.545Z,0.00
2018-09-10T00:56:52.558Z,0.00
2018-09-10T00:58:45.475Z,0.00
2018-09-10T00:59:45.485Z,0.00
2018-09-10T01:01:38.401Z,0.00
2018-09-10T01:02:38.421Z,0.00
2018-09-10T01:04:31.337Z,0.00
2018-09-10T01:05:31.349Z,0.00
2018-09-10T01:07:24.270Z,0.00
2018-09-10T01:08:24.275Z,0.00
2018-09-10T01:10:17.200Z,0.00
2018-09-10T01:11:17.203Z,0.00
2018-09-10T01:13:10.116Z,0.00
2018-09-10T01:14:10.131Z,0.00
2018-09-10T01:16:03.053Z,0.00
2018-09-10T01:17:03.064Z,0.00
2018-09-10T01:18:55.982Z,0.00
2018-09-10T01:19:55.989Z,0.00
2018-09-10T01:21:48.894Z,0.00
2018-09-10T01:22:48.914Z,0.00
2018-09-10T01:24:41.836Z,0.00
2018-09-10T01:25:41.850Z,0.00
2018-09-10T01:27:34.755Z,0.00
2018-09-10T01:28:34.775Z,0.00
2018-09-10T01:30:27.690Z,0.00
2018-09-10T01:31:27.703Z,0.00
2018-09-10T01:33:20.608Z,0.00
2018-09-10T01:34:20.629Z,0.00
2018-09-10T01:36:13.546Z,0.00
2018-09-10T01:37:13.559Z,0.00
2018-09-10T01:39:06.476Z,0.00
2018-09-10T01:40:06.505Z,0.00
2018-09-10T01:41:59.395Z,0.00
2018-09-10T01:42:59.418Z,0.00
2018-09-10T01:44:52.336Z,0.00
2018-09-10T01:45:52.343Z,0.00
2018-09-10T01:47:45.252Z,0.00
2018-09-10T01:48:45.271Z,0.00
2018-09-10T01:50:38.197Z,0.00
2018-09-10T01:51:38.211Z,0.00
2018-09-10T01:53:31.122Z,0.00
2018-09-10T01:54:31.139Z,0.00
2018-09-10T01:56:24.054Z,0.00
2018-09-10T01:57:24.066Z,0.00
2018-09-10T01:59:16.974Z,0.00
2018-09-10T02:00:16.993Z,0.00
2018-09-10T02:02:09.915Z,0.00
2018-09-10T02:03:09.930Z,0.00
2018-09-10T02:05:02.845Z,0.00
2018-09-10T02:06:02.858Z,0.00
2018-09-10T02:07:55.763Z,0.00
2018-09-10T02:08:55.788Z,0.00
2018-09-10T02:10:49.705Z,0.00
2018-09-10T02:11:49.715Z,0.00
2018-09-10T02:13:42.624Z,0.00
2018-09-10T02:14:42.645Z,0.00
2018-09-10T02:16:35.557Z,0.00
2018-09-10T02:17:35.573Z,0.00
2018-09-10T02:19:28.483Z,0.00
2018-09-10T02:20:28.571Z,0.00
2018-09-10T02:22:21.427Z,0.00
2018-09-10T02:23:21.433Z,0.00
2018-09-10T02:25:14.339Z,0.00
2018-09-10T02:26:14.374Z,0.00
2018-09-10T02:28:07.276Z,0.00
2018-09-10T02:29:07.317Z,0.00
2018-09-10T02:31:00.208Z,0.00
2018-09-10T02:32:00.217Z,0.00
2018-09-10T02:33:53.133Z,0.00
2018-09-10T02:34:53.154Z,0.00
2018-09-10T02:36:46.070Z,0.00
2018-09-10T02:37:46.081Z,0.00
2018-09-10T02:39:39.000Z,0.00
2018-09-10T02:40:39.017Z,0.00
2018-09-10T02:42:31.940Z,0.00
2018-09-10T02:43:31.949Z,0.00
2018-09-10T02:45:24.858Z,0.00
2018-09-10T02:46:24.879Z,0.00
2018-09-10T02:48:17.794Z,0.00
2018-09-10T02:49:17.806Z,0.00
2018-09-10T02:51:10.721Z,0.00
2018-09-10T02:52:10.734Z,0.00
2018-09-10T02:54:03.639Z,0.00
2018-09-10T02:55:03.694Z,0.00
2018-09-10T02:56:56.579Z,0.00
2018-09-10T02:57:56.588Z,0.00
2018-09-10T02:59:49.504Z,0.00
2018-09-10T03:00:49.521Z,0.00
2018-09-10T03:02:42.436Z,0.00
2018-09-10T03:03:42.447Z,0.00
2018-09-10T03:05:35.355Z,0.00
2018-09-10T03:06:35.378Z,0.00
2018-09-10T03:08:28.299Z,0.00
2018-09-10T03:09:28.307Z,0.00
2018-09-10T03:11:21.213Z,0.00
2018-09-10T03:12:21.238Z,0.00
2018-09-10T03:14:14.162Z,0.00
2018-09-10T03:15:14.165Z,0.00
2018-09-10T03:17:07.076Z,0.00
2018-09-10T03:18:07.172Z,0.00
2018-09-10T03:19:59.996Z,0.00
2018-09-10T03:21:00.021Z,0.00
2018-09-10T03:22:52.937Z,0.00
2018-09-10T03:23:53.025Z,0.00
2018-09-10T03:25:45.857Z,0.00
2018-09-10T03:26:45.875Z,0.00
2018-09-10T03:28:38.792Z,0.00
2018-09-10T03:29:38.804Z,0.00
2018-09-10T03:31:31.713Z,0.00
2018-09-10T03:32:31.735Z,0.00
2018-09-10T03:34:24.652Z,0.00
2018-09-10T03:35:24.663Z,0.00
2018-09-10T03:37:17.571Z,0.00
2018-09-10T03:38:17.591Z,0.00
2018-09-10T03:40:10.521Z,0.00
2018-09-10T03:41:10.519Z,0.00
2018-09-10T03:43:03.455Z,0.00
2018-09-10T03:44:03.462Z,0.00
2018-09-10T03:45:56.357Z,0.00
2018-09-10T03:46:56.388Z,0.00
2018-09-10T03:48:49.292Z,0.00
2018-09-10T03:49:49.303Z,0.00
2018-09-10T03:51:42.210Z,0.00
2018-09-10T03:52:42.231Z,0.00
2018-09-10T03:54:35.149Z,0.00
2018-09-10T03:55:35.165Z,0.00
2018-09-10T03:57:28.068Z,0.00
2018-09-10T03:58:28.088Z,0.00
2018-09-10T04:00:21.006Z,0.00
2018-09-10T04:01:21.027Z,0.00
2018-09-10T04:03:13.934Z,0.00
2018-09-10T04:04:13.950Z,0.00
2018-09-10T04:06:06.859Z,0.00
2018-09-10T04:07:06.895Z,0.00
2018-09-10T04:08:59.794Z,0.00
2018-09-10T04:09:59.811Z,0.00
2018-09-10T04:11:52.713Z,0.00
2018-09-10T04:12:52.736Z,0.00
2018-09-10T04:14:45.668Z,0.00
2018-09-10T04:15:45.683Z,0.00
2018-09-10T04:17:38.592Z,0.00
2018-09-10T04:18:38.613Z,0.00
2018-09-10T04:20:31.531Z,0.00
2018-09-10T04:21:31.544Z,0.00
2018-09-10T04:23:24.452Z,0.00
2018-09-10T04:24:24.470Z,0.00
2018-09-10T04:26:17.389Z,0.00
2018-09-10T04:27:17.398Z,0.00
2018-09-10T04:29:10.317Z,0.00
2018-09-10T04:30:10.328Z,0.00
2018-09-10T04:32:03.242Z,0.00
2018-09-10T04:33:03.259Z,0.00
2018-09-10T04:34:56.179Z,0.00
2018-09-10T04:35:56.278Z,0.00
2018-09-10T04:37:49.105Z,0.00
2018-09-10T04:38:49.121Z,0.00
2018-09-10T04:40:42.039Z,0.00
2018-09-10T04:41:42.049Z,0.00
2018-09-10T04:43:34.958Z,0.00
2018-09-10T04:44:34.976Z,0.00
2018-09-10T04:46:27.891Z,0.00
2018-09-10T04:47:27.905Z,0.00
2018-09-10T04:49:20.829Z,0.00
2018-09-10T04:50:20.827Z,0.00
2018-09-10T04:52:13.734Z,0.00
2018-09-10T04:53:13.753Z,0.00
2018-09-10T04:55:06.681Z,0.00
2018-09-10T04:56:06.708Z,0.00
2018-09-10T04:57:59.608Z,0.00
2018-09-10T04:58:59.610Z,5.63
2018-09-10T05:00:52.573Z,5.63
2018-09-10T05:01:52.551Z,5.63
2018-09-10T05:03:45.451Z,5.63
2018-09-10T05:04:45.475Z,5.63
2018-09-10T05:06:38.388Z,5.63
2018-09-10T05:07:38.401Z,11.25
2018-09-10T05:09:31.309Z,11.25
2018-09-10T05:10:31.334Z,11.25
2018-09-10T05:12:24.253Z,11.25
2018-09-10T05:13:24.262Z,11.25
2018-09-10T05:15:17.674Z,16.88
2018-09-10T05:16:17.690Z,16.88
2018-09-10T05:18:11.830Z,16.88
2018-09-10T05:19:11.850Z,16.88
2018-09-10T05:21:04.770Z,16.88
2018-09-10T05:22:04.814Z,22.50
2018-09-10T05:23:57.689Z,22.50
2018-09-10T05:24:57.708Z,22.50
2018-09-10T05:26:50.622Z,22.50
2018-09-10T05:27:50.637Z,22.50
2018-09-10T05:29:43.578Z,22.50
2018-09-10T05:30:43.570Z,22.50
2018-09-10T05:32:36.506Z,22.50
2018-09-10T05:33:36.515Z,22.50
2018-09-10T05:35:29.425Z,28.13
2018-09-10T05:36:29.445Z,33.75
2018-09-10T05:38:22.360Z,33.75
2018-09-10T05:39:22.371Z,33.75
2018-09-10T05:41:15.287Z,33.75
2018-09-10T05:42:15.299Z,33.75
2018-09-10T05:44:08.207Z,33.75
2018-09-10T05:45:08.229Z,28.13
2018-09-10T05:47:01.148Z,33.75
2018-09-10T05:48:01.161Z,39.38
2018-09-10T05:49:54.072Z,39.38
2018-09-10T05:50:54.086Z,45.00
2018-09-10T05:52:47.011Z,45.00
2018-09-10T05:53:47.019Z,45.00
2018-09-10T05:55:40.017Z,45.00
2018-09-10T05:56:39.943Z,45.00
2018-09-10T05:58:32.869Z,50.63
2018-09-10T05:59:32.877Z,50.63
2018-09-10T06:01:25.788Z,56.25
2018-09-10T06:02:25.799Z,61.88
2018-09-10T06:04:18.716Z,67.50
2018-09-10T06:05:18.731Z,73.13
2018-09-10T06:07:11.668Z,73.13
2018-09-10T06:08:11.662Z,73.13
2018-09-10T06:10:04.577Z,73.13
2018-09-10T06:11:04.596Z,73.13
2018-09-10T06:12:57.515Z,73.13
2018-09-10T06:13:57.517Z,67.50
2018-09-10T06:15:50.432Z,67.50
2018-09-10T06:16:50.538Z,73.13
2018-09-10T06:18:43.373Z,67.50
2018-09-10T06:19:43.382Z,61.88
2018-09-10T06:21:36.296Z,61.88
2018-09-10T06:22:43.435Z,61.88
2018-09-10T06:24:29.232Z,56.25
2018-09-10T06:25:29.247Z,56.25
2018-09-10T06:27:22.177Z,61.88
2018-09-10T06:28:22.177Z,67.50
2018-09-10T06:30:15.121Z,67.50
2018-09-10T06:31:15.129Z,73.13
2018-09-10T06:33:08.046Z,84.38
2018-09-10T06:34:08.134Z,84.38
2018-09-10T06:36:00.974Z,95.63
2018-09-10T06:37:00.999Z,95.63
2018-09-10T06:38:53.914Z,106.88
2018-09-10T06:39:53.928Z,118.13
2018-09-10T06:41:46.833Z,129.38
2018-09-10T06:42:46.856Z,146.25
2018-09-10T06:44:39.783Z,163.13
2018-09-10T06:45:39.787Z,168.75
2018-09-10T06:47:32.698Z,157.50
2018-09-10T06:48:32.721Z,157.50
2018-09-10T06:50:25.644Z,163.13
2018-09-10T06:51:25.657Z,168.75
2018-09-10T06:53:18.617Z,196.88
2018-09-10T06:54:18.595Z,213.75
2018-09-10T06:56:11.504Z,241.88
2018-09-10T06:57:11.525Z,253.13
2018-09-10T06:59:04.442Z,281.25
2018-09-10T07:00:04.473Z,298.13
2018-09-10T07:01:57.366Z,326.25
2018-09-10T07:02:57.388Z,320.63
2018-09-10T07:04:50.309Z,298.13
2018-09-10T07:05:50.322Z,275.63
2018-09-10T07:07:43.239Z,241.88
2018-09-10T07:08:43.262Z,230.63
2018-09-10T07:10:36.181Z,196.88
2018-09-10T07:11:36.196Z,196.88
2018-09-10T07:13:29.107Z,208.13
2018-09-10T07:14:29.133Z,225.00
2018-09-10T07:16:22.066Z,264.38
2018-09-10T07:17:22.066Z,286.88
2018-09-10T07:19:14.990Z,326.25
2018-09-10T07:20:15.005Z,343.13
2018-09-10T07:22:07.923Z,376.88
2018-09-10T07:23:07.945Z,382.50
2018-09-10T07:25:00.872Z,365.63
2018-09-10T07:26:00.897Z,348.75
2018-09-10T07:27:53.800Z,331.88
2018-09-10T07:28:53.825Z,309.38
2018-09-10T07:30:46.746Z,292.50
2018-09-10T07:31:46.768Z,298.13
2018-09-10T07:33:39.681Z,292.50
2018-09-10T07:34:39.711Z,281.25
2018-09-10T07:36:32.620Z,275.63
2018-09-10T07:37:32.640Z,275.63
2018-09-10T07:39:25.562Z,286.88
2018-09-10T07:40:25.590Z,286.88
2018-09-10T07:42:18.543Z,264.38
2018-09-10T07:43:18.531Z,264.38
2018-09-10T07:45:11.462Z,253.13
2018-09-10T07:46:11.465Z,241.88
2018-09-10T07:49:36.715Z,236.25
2018-09-10T07:50:36.741Z,236.25
2018-09-10T07:52:29.665Z,253.13
2018-09-10T07:53:29.681Z,275.63
2018-09-10T07:55:22.593Z,303.75
2018-09-10T07:56:22.616Z,309.38
2018-09-10T07:58:15.538Z,326.25
2018-09-10T07:59:15.553Z,337.50
2018-09-10T08:01:08.478Z,354.38
2018-09-10T08:02:08.490Z,365.63
2018-09-10T08:04:01.408Z,393.75
2018-09-10T08:05:01.432Z,405.00
2018-09-10T08:06:54.354Z,489.38
2018-09-10T08:07:54.372Z,506.25
2018-09-10T08:09:47.286Z,500.63
2018-09-10T08:10:47.311Z,489.38
2018-09-10T08:12:40.232Z,461.25
2018-09-10T08:13:40.251Z,455.63
2018-09-10T08:15:33.168Z,393.75
2018-09-10T08:16:33.254Z,376.88
2018-09-10T08:18:26.121Z,354.38
2018-09-10T08:19:26.138Z,343.13
2018-09-10T08:21:19.056Z,331.88
2018-09-10T08:22:19.081Z,331.88
2018-09-10T08:24:12.106Z,348.75
2018-09-10T08:25:12.046Z,365.63
2018-09-10T08:27:04.983Z,376.88
2018-09-10T08:28:04.969Z,376.88
2018-09-10T08:29:58.898Z,371.25
2018-09-10T08:30:58.930Z,365.63
2018-09-10T08:32:51.863Z,354.38
2018-09-10T08:33:51.879Z,365.63
2018-09-10T08:35:44.796Z,399.38
2018-09-10T08:36:44.823Z,416.25
2018-09-10T08:38:37.746Z,393.75
2018-09-10T08:39:37.766Z,376.88
2018-09-10T08:41:30.702Z,354.38
2018-09-10T08:42:30.706Z,348.75
2018-09-10T08:44:23.634Z,348.75
2018-09-10T08:45:23.651Z,348.75
2018-09-10T08:47:16.577Z,337.50
2018-09-10T08:48:16.690Z,337.50
2018-09-10T08:50:09.515Z,331.88
2018-09-10T08:51:09.581Z,320.63
2018-09-10T08:53:02.632Z,303.75
2018-09-10T08:54:02.718Z,303.75
2018-09-10T08:55:55.761Z,309.38
2018-09-10T08:56:55.582Z,315.00
2018-09-10T08:58:48.517Z,315.00
2018-09-10T08:59:48.533Z,315.00
2018-09-10T09:01:41.470Z,326.25
2018-09-10T09:02:41.480Z,331.88
2018-09-10T09:04:34.407Z,343.13
2018-09-10T09:05:34.422Z,343.13
2018-09-10T09:07:27.379Z,337.50
2018-09-10T09:08:27.379Z,337.50
2018-09-10T09:10:21.502Z,331.88
2018-09-10T09:11:21.517Z,337.50
2018-09-10T09:13:14.442Z,348.75
2018-09-10T09:14:14.458Z,371.25
2018-09-10T09:16:07.377Z,416.25
2018-09-10T09:17:07.404Z,433.13
2018-09-10T09:19:00.337Z,444.38
2018-09-10T09:20:00.355Z,438.75
2018-09-10T09:21:53.270Z,433.13
2018-09-10T09:22:53.296Z,444.38
2018-09-10T09:24:46.226Z,421.88
2018-09-10T09:25:46.245Z,416.25
2018-09-10T09:27:39.170Z,405.00
2018-09-10T09:28:39.214Z,405.00
2018-09-10T09:30:33.124Z,399.38
2018-09-10T09:31:33.129Z,405.00
2018-09-10T09:33:26.059Z,427.50
2018-09-10T09:34:26.072Z,427.50
2018-09-10T09:36:19.051Z,421.88
2018-09-10T09:37:19.065Z,427.50
2018-09-10T09:39:11.939Z,399.38
2018-09-10T09:40:11.975Z,376.88
2018-09-10T09:42:04.878Z,365.63
2018-09-10T09:43:04.939Z,376.88
2018-09-10T09:44:57.834Z,399.38
2018-09-10T09:45:57.848Z,421.88
2018-09-10T09:47:50.772Z,472.50
2018-09-10T09:48:50.800Z,489.38
2018-09-10T09:50:43.729Z,489.38
2018-09-10T09:51:43.748Z,483.75
2018-09-10T09:53:36.668Z,461.25
2018-09-10T09:54:36.690Z,461.25
2018-09-10T09:56:29.635Z,455.63
2018-09-10T09:57:29.643Z,455.63
2018-09-10T09:59:22.578Z,466.88
2018-09-10T10:00:22.621Z,461.25
2018-09-10T10:02:15.518Z,450.00
2018-09-10T10:03:15.546Z,438.75
2018-09-10T10:05:08.472Z,444.38
2018-09-10T10:06:08.525Z,450.00
2018-09-10T10:08:01.415Z,461.25
2018-09-10T10:09:01.443Z,455.63
2018-09-10T10:10:54.366Z,438.75
2018-09-10T10:11:54.418Z,427.50
2018-09-10T10:13:47.302Z,393.75
2018-09-10T10:14:47.330Z,365.63
2018-09-10T10:16:40.259Z,331.88
2018-09-10T10:17:40.276Z,331.88
2018-09-10T10:19:33.198Z,360.00
2018-09-10T10:20:33.251Z,376.88
2018-09-10T10:22:26.175Z,399.38
2018-09-10T10:23:26.188Z,410.63
2018-09-10T10:25:19.197Z,416.25
2018-09-10T10:26:19.132Z,416.25
2018-09-10T10:28:12.082Z,433.13
2018-09-10T10:29:12.083Z,450.00
2018-09-10T10:31:05.014Z,455.63
2018-09-10T10:32:05.031Z,421.88
2018-09-10T10:33:57.945Z,360.00
2018-09-10T10:34:57.983Z,343.13
2018-09-10T10:36:50.920Z,320.63
2018-09-10T10:37:50.934Z,326.25
2018-09-10T10:39:43.902Z,331.88
2018-09-10T10:40:43.902Z,343.13
2018-09-10T10:42:36.976Z,382.50
2018-09-10T10:43:37.026Z,399.38
2018-09-10T10:45:29.943Z,427.50
2018-09-10T10:46:29.953Z,421.88
2018-09-10T10:48:22.863Z,388.13
2018-09-10T10:49:22.915Z,376.88
2018-09-10T10:51:15.823Z,376.88
2018-09-10T10:52:15.844Z,393.75
2018-09-10T10:54:08.759Z,405.00
2018-09-10T10:55:08.789Z,410.63
2018-09-10T10:57:01.732Z,438.75
2018-09-10T10:58:01.734Z,444.38
2018-09-10T10:59:54.649Z,416.25
2018-09-10T11:00:54.691Z,416.25
2018-09-10T11:02:47.603Z,455.63
2018-09-10T11:03:47.623Z,466.88
2018-09-10T11:05:40.540Z,489.38
2018-09-10T11:06:40.570Z,489.38
2018-09-10T11:08:33.559Z,466.88
2018-09-10T11:09:33.514Z,461.25
2018-09-10T11:11:26.450Z,450.00
2018-09-10T11:12:26.468Z,438.75
2018-09-10T11:14:19.407Z,416.25
2018-09-10T11:15:19.437Z,405.00
2018-09-10T11:17:12.370Z,399.38
2018-09-10T11:18:12.390Z,399.38
2018-09-10T11:20:05.314Z,399.38
2018-09-10T11:21:05.340Z,393.75
2018-09-10T11:22:58.272Z,388.13
2018-09-10T11:23:58.294Z,399.38
2018-09-10T11:25:51.417Z,427.50
2018-09-10T11:26:51.442Z,444.38
2018-09-10T11:28:44.371Z,461.25
2018-09-10T11:29:44.391Z,455.63
2018-09-10T11:31:37.307Z,433.13
2018-09-10T11:32:37.338Z,433.13
2018-09-10T11:34:30.275Z,433.13
2018-09-10T11:35:30.286Z,444.38
2018-09-10T11:37:23.225Z,461.25
2018-09-10T11:38:23.235Z,461.25
2018-09-10T11:40:16.151Z,438.75
2018-09-10T11:41:16.188Z,444.38
2018-09-10T11:43:09.109Z,500.63
2018-09-10T11:44:09.125Z,506.25
2018-09-10T11:46:02.246Z,483.75
2018-09-10T11:47:02.275Z,461.25
2018-09-10T11:48:55.208Z,421.88
2018-09-10T11:49:55.228Z,399.38
2018-09-10T11:51:48.151Z,399.38
2018-09-10T11:52:48.174Z,399.38
2018-09-10T11:54:41.107Z,388.13
2018-09-10T11:55:41.201Z,371.25
2018-09-10T11:57:34.047Z,315.00
2018-09-10T11:58:34.075Z,315.00
2018-09-10T12:00:27.006Z,343.13
2018-09-10T12:01:27.030Z,343.13
2018-09-10T12:03:19.953Z,331.88
2018-09-10T12:04:19.970Z,320.63
2018-09-10T12:06:12.894Z,343.13
2018-09-10T12:07:12.916Z,354.38
2018-09-10T12:09:05.850Z,365.63
2018-09-10T12:10:05.872Z,376.88
2018-09-10T12:11:58.783Z,388.13
2018-09-10T12:12:58.812Z,399.38
2018-09-10T12:14:51.745Z,416.25
2018-09-10T12:15:51.757Z,416.25
2018-09-10T12:17:44.687Z,416.25
2018-09-10T12:18:44.716Z,410.63
2018-09-10T12:20:37.649Z,388.13
2018-09-10T12:21:37.743Z,376.88
2018-09-10T12:23:30.622Z,360.00
2018-09-10T12:24:30.609Z,371.25
2018-09-10T12:26:23.529Z,376.88
2018-09-10T12:27:23.555Z,376.88
2018-09-10T12:29:16.494Z,371.25
2018-09-10T12:30:16.549Z,354.38
2018-09-10T12:32:09.438Z,360.00
2018-09-10T12:33:09.466Z,360.00
2018-09-10T12:35:02.398Z,326.25
2018-09-10T12:36:02.417Z,348.75
2018-09-10T12:37:55.334Z,382.50
2018-09-10T12:38:55.359Z,388.13
2018-09-10T12:40:49.287Z,388.13
2018-09-10T12:41:49.332Z,388.13
2018-09-10T12:43:42.221Z,376.88
2018-09-10T12:44:42.262Z,388.13
2018-09-10T12:46:35.256Z,410.63
2018-09-10T12:47:35.223Z,410.63
2018-09-10T12:49:28.147Z,393.75
2018-09-10T12:50:28.178Z,393.75
2018-09-10T12:52:21.080Z,410.63
2018-09-10T12:53:21.121Z,416.25
2018-09-10T12:55:14.024Z,399.38
2018-09-10T12:56:14.042Z,399.38
2018-09-10T12:58:06.964Z,405.00
2018-09-10T12:59:06.986Z,410.63
2018-09-10T13:00:59.938Z,416.25
2018-09-10T13:01:59.942Z,405.00
2018-09-10T13:03:52.856Z,388.13
2018-09-10T13:04:52.890Z,393.75
2018-09-10T13:06:45.818Z,405.00
2018-09-10T13:07:45.836Z,399.38
2018-09-10T13:09:38.761Z,399.38
2018-09-10T13:10:38.850Z,399.38
2018-09-10T13:12:31.723Z,399.38
2018-09-10T13:13:31.740Z,399.38
2018-09-10T13:15:24.676Z,399.38
2018-09-10T13:16:24.792Z,393.75
2018-09-10T13:18:18.610Z,371.25
2018-09-10T13:19:18.642Z,360.00
2018-09-10T13:21:11.562Z,354.38
2018-09-10T13:22:11.608Z,354.38
2018-09-10T13:24:04.536Z,348.75
2018-09-10T13:25:04.567Z,337.50
2018-09-10T13:26:57.462Z,315.00
2018-09-10T13:27:57.484Z,320.63
2018-09-10T13:29:50.508Z,343.13
2018-09-10T13:30:50.457Z,348.75
2018-09-10T13:32:43.355Z,360.00
2018-09-10T13:33:43.375Z,382.50
2018-09-10T13:35:36.298Z,433.13
2018-09-10T13:36:36.387Z,427.50
2018-09-10T13:38:29.252Z,365.63
2018-09-10T13:39:29.274Z,348.75
2018-09-10T13:41:22.204Z,326.25
2018-09-10T13:42:22.223Z,331.88
2018-09-10T13:44:16.145Z,348.75
2018-09-10T13:45:16.181Z,360.00
2018-09-10T13:47:09.114Z,365.63
2018-09-10T13:48:09.133Z,365.63
2018-09-10T13:50:02.074Z,343.13
2018-09-10T13:51:02.084Z,326.25
2018-09-10T13:52:55.013Z,315.00
2018-09-10T13:53:55.033Z,315.00
2018-09-10T13:55:48.114Z,309.38
2018-09-10T13:56:48.142Z,320.63
2018-09-10T13:58:41.066Z,343.13
2018-09-10T13:59:41.107Z,331.88
2018-09-10T14:01:34.011Z,331.88
2018-09-10T14:02:34.032Z,315.00
2018-09-10T14:04:26.965Z,247.50
2018-09-10T14:05:26.984Z,241.88
2018-09-10T14:07:19.910Z,253.13
2018-09-10T14:08:19.928Z,241.88
2018-09-10T14:10:12.857Z,185.63
2018-09-10T14:11:12.894Z,191.25
2018-09-10T14:13:05.838Z,225.00
2018-09-10T14:14:05.829Z,230.63
2018-09-10T14:15:58.753Z,213.75
2018-09-10T14:16:58.881Z,196.88
2018-09-10T14:18:51.719Z,146.25
2018-09-10T14:19:51.736Z,151.88
2018-09-10T14:21:44.687Z,146.25
2018-09-10T14:22:44.712Z,135.00
2018-09-10T14:24:37.644Z,163.13
2018-09-10T14:25:37.662Z,157.50
2018-09-10T14:27:30.610Z,129.38
2018-09-10T14:28:30.614Z,163.13
2018-09-10T14:30:23.574Z,241.88
2018-09-10T14:31:23.582Z,253.13
2018-09-10T14:33:16.518Z,247.50
2018-09-10T14:34:16.538Z,258.75
2018-09-10T14:36:09.456Z,275.63
2018-09-10T14:37:09.462Z,275.63
2018-09-10T14:39:02.389Z,275.63
2018-09-10T14:40:02.401Z,275.63
2018-09-10T14:41:55.342Z,230.63
2018-09-10T14:42:55.374Z,208.13
2018-09-10T14:44:48.277Z,196.88
2018-09-10T14:45:48.321Z,196.88
2018-09-10T14:47:41.213Z,208.13
2018-09-10T14:48:41.238Z,219.38
2018-09-10T14:50:34.195Z,174.38
2018-09-10T14:51:34.210Z,168.75
2018-09-10T14:53:27.134Z,163.13
2018-09-10T14:54:27.134Z,140.63
2018-09-10T14:56:20.057Z,112.50
2018-09-10T14:57:20.083Z,101.25
2018-09-10T14:59:13.070Z,95.63
2018-09-10T15:00:13.025Z,95.63
2018-09-10T15:02:05.945Z,78.75
2018-09-10T15:03:05.976Z,84.38
2018-09-10T15:04:58.902Z,90.00
2018-09-10T15:05:58.945Z,78.75
2018-09-10T15:07:51.839Z,90.00
2018-09-10T15:08:51.866Z,112.50
2018-09-10T15:10:44.807Z,129.38
2018-09-10T15:11:44.854Z,140.63
2018-09-10T15:13:37.746Z,163.13
2018-09-10T15:14:37.819Z,168.75
2018-09-10T15:16:30.734Z,180.00
2018-09-10T15:17:30.715Z,180.00
2018-09-10T15:19:23.746Z,185.63
2018-09-10T15:20:23.683Z,191.25
2018-09-10T15:22:16.606Z,191.25
2018-09-10T15:23:16.603Z,191.25
2018-09-10T15:25:09.536Z,185.63
2018-09-10T15:26:09.613Z,180.00
2018-09-10T15:28:02.486Z,163.13
2018-09-10T15:29:02.498Z,157.50
2018-09-10T15:30:55.424Z,140.63
2018-09-10T15:31:55.440Z,135.00
2018-09-10T15:33:48.420Z,140.63
2018-09-10T15:34:48.384Z,140.63
2018-09-10T15:36:41.328Z,140.63
2018-09-10T15:37:41.384Z,135.00
2018-09-10T15:39:34.246Z,135.00
2018-09-10T15:40:34.290Z,129.38
2018-09-10T15:42:27.208Z,129.38
2018-09-10T15:43:27.225Z,129.38
2018-09-10T15:45:20.201Z,129.38
2018-09-10T15:46:20.181Z,129.38
2018-09-10T15:48:13.093Z,123.75
2018-09-10T15:49:13.216Z,123.75
2018-09-10T15:51:06.127Z,101.25
2018-09-10T15:52:06.060Z,95.63
2018-09-10T15:53:58.983Z,106.88
2018-09-10T15:54:59.009Z,118.13
2018-09-10T15:56:52.207Z,135.00
2018-09-10T15:57:52.043Z,140.63
2018-09-10T15:59:45.864Z,135.00
2018-09-10T16:00:45.889Z,129.38
2018-09-10T16:02:38.813Z,140.63
2018-09-10T16:03:38.853Z,140.63
2018-09-10T16:05:31.769Z,135.00
2018-09-10T16:06:31.773Z,140.63
2018-09-10T16:08:24.698Z,146.25
2018-09-10T16:09:24.722Z,140.63
2018-09-10T16:11:17.648Z,129.38
2018-09-10T16:12:17.664Z,118.13
2018-09-10T16:14:10.592Z,95.63
2018-09-10T16:15:10.618Z,90.00
2018-09-10T16:18:35.152Z,78.75
2018-09-10T16:19:35.164Z,84.38
2018-09-10T16:21:28.091Z,90.00
2018-09-10T16:22:28.163Z,90.00
2018-09-10T16:24:21.021Z,84.38
2018-09-10T16:25:21.049Z,78.75
2018-09-10T16:27:13.975Z,78.75
2018-09-10T16:28:14.019Z,84.38
2018-09-10T16:30:06.911Z,78.75
2018-09-10T16:31:06.938Z,78.75
2018-09-10T16:32:59.860Z,67.50
2018-09-10T16:33:59.962Z,61.88
2018-09-10T16:35:52.790Z,50.63
2018-09-10T16:36:52.852Z,45.00
2018-09-10T16:38:45.741Z,50.63
2018-09-10T16:39:45.752Z,50.63
2018-09-10T16:41:38.678Z,45.00
2018-09-10T16:42:38.697Z,39.38
2018-09-10T16:44:31.622Z,33.75
2018-09-10T16:45:31.630Z,28.13
2018-09-10T16:47:24.613Z,22.50
2018-09-10T16:48:24.590Z,22.50
2018-09-10T16:50:17.493Z,22.50
2018-09-10T16:51:17.514Z,16.88
2018-09-10T16:53:10.441Z,22.50
2018-09-10T16:54:10.579Z,28.13
2018-09-10T16:56:03.406Z,28.13
2018-09-10T16:57:03.427Z,33.75
2018-09-10T16:58:56.869Z,33.75
2018-09-10T16:59:56.345Z,33.75
2018-09-10T17:01:49.288Z,28.13
2018-09-10T17:02:49.302Z,28.13
2018-09-10T17:04:42.284Z,33.75
2018-09-10T17:05:42.225Z,33.75
2018-09-10T17:07:35.148Z,33.75
2018-09-10T17:08:35.162Z,33.75
2018-09-10T17:10:28.082Z,28.13
2018-09-10T17:11:28.106Z,28.13
2018-09-10T17:13:21.190Z,22.50
2018-09-10T17:14:21.050Z,22.50
2018-09-10T17:16:13.966Z,22.50
2018-09-10T17:17:13.992Z,22.50
2018-09-10T17:19:06.927Z,22.50
2018-09-10T17:20:06.943Z,16.88
2018-09-10T17:21:59.857Z,16.88
2018-09-10T17:22:59.893Z,16.88
2018-09-10T17:24:52.826Z,11.25
2018-09-10T17:25:52.832Z,11.25
2018-09-10T17:27:45.769Z,11.25
2018-09-10T17:28:45.774Z,11.25
2018-09-10T17:30:38.690Z,11.25
2018-09-10T17:31:38.713Z,11.25
2018-09-10T17:33:31.698Z,11.25
2018-09-10T17:34:31.701Z,5.63
2018-09-10T17:36:24.618Z,5.63
2018-09-10T17:37:24.645Z,5.63
2018-09-10T17:39:17.579Z,5.63
2018-09-10T17:40:17.625Z,5.63
2018-09-10T17:42:10.521Z,5.63
2018-09-10T17:43:10.531Z,5.63
2018-09-10T17:45:03.449Z,5.63
2018-09-10T17:46:03.460Z,5.63
2018-09-10T17:47:56.384Z,0.00
2018-09-10T17:48:56.410Z,0.00
2018-09-10T17:50:49.333Z,0.00
2018-09-10T17:51:49.346Z,0.00
2018-09-10T17:53:42.269Z,0.00
2018-09-10T17:54:42.283Z,0.00
2018-09-10T17:56:35.211Z,0.00
2018-09-10T17:57:35.227Z,0.00
2018-09-10T17:59:28.151Z,0.00
2018-09-10T18:00:28.167Z,0.00
2018-09-10T18:02:21.083Z,0.00
2018-09-10T18:03:21.156Z,0.00
2018-09-10T18:05:14.049Z,0.00
2018-09-10T18:06:14.068Z,0.00
2018-09-10T18:08:06.986Z,0.00
2018-09-10T18:09:07.009Z,0.00
2018-09-10T18:11:00.004Z,0.00
2018-09-10T18:11:59.952Z,0.00
2018-09-10T18:13:52.895Z,0.00
2018-09-10T18:14:52.891Z,0.00
2018-09-10T18:16:45.974Z,0.00
2018-09-10T18:17:45.991Z,0.00
2018-09-10T18:19:38.928Z,0.00
2018-09-10T18:20:39.017Z,0.00
2018-09-10T18:22:31.879Z,0.00
2018-09-10T18:23:31.904Z,0.00
2018-09-10T18:25:24.840Z,0.00
2018-09-10T18:26:24.887Z,0.00
2018-09-10T18:28:17.756Z,0.00
2018-09-10T18:29:17.781Z,0.00
2018-09-10T18:31:10.707Z,0.00